createdAt,value
2018-09-27T00:00:28.505Z,99.90
2018-09-27T00:02:57.138Z,99.90
2018-09-27T00:05:25.804Z,99.90
2018-09-27T00:07:54.477Z,99.90
2018-09-27T00:10:23.146Z,99.90
2018-09-27T00:12:51.647Z,99.90
2018-09-27T00:15:20.246Z,99.90
2018-09-27T00:17:48.851Z,99.90
2018-09-27T00:20:17.368Z,99.90
2018-09-27T00:22:45.913Z,99.90
2018-09-27T00:25:14.418Z,99.90
2018-09-27T00:27:42.908Z,99.90
2018-09-27T00:30:11.412Z,99.90
2018-09-27T00:32:40.087Z,99.90
2018-09-27T00:35:08.668Z,99.90
2018-09-27T00:37:37.394Z,99.90
2018-09-27T00:40:05.969Z,99.90
2018-09-27T00:42:34.767Z,99.90
2018-09-27T00:45:03.346Z,99.90
2018-09-27T00:47:31.888Z,99.90
2018-09-27T00:50:00.398Z,99.90
2018-09-27T00:52:29.034Z,99.90
2018-09-27T00:54:57.624Z,99.90
2018-09-27T00:57:26.080Z,99.90
2018-09-27T00:59:54.531Z,99.90
2018-09-27T01:02:23.156Z,99.90
2018-09-27T01:04:51.801Z,99.90
2018-09-27T01:07:20.355Z,99.90
2018-09-27T01:09:48.971Z,99.90
2018-09-27T01:12:17.557Z,99.90
2018-09-27T01:14:46.201Z,99.90
2018-09-27T01:17:14.779Z,99.90
2018-09-27T01:19:43.402Z,99.90
2018-09-27T01:22:12.028Z,99.90
2018-09-27T01:24:40.550Z,99.90
2018-09-27T01:27:09.077Z,99.90
2018-09-27T01:29:37.661Z,99.90
2018-09-27T01:32:06.257Z,99.90
2018-09-27T01:34:34.765Z,99.90
2018-09-27T01:37:03.219Z,99.90
2018-09-27T01:39:31.827Z,99.90
2018-09-27T01:42:00.415Z,99.90
2018-09-27T01:44:29.199Z,99.90
2018-09-27T01:46:57.831Z,99.90
2018-09-27T01:49:26.288Z,99.90
2018-09-27T01:51:54.792Z,99.90
2018-09-27T01:54:23.297Z,99.90
2018-09-27T01:56:51.744Z,99.90
2018-09-27T01:59:20.283Z,99.90
2018-09-27T02:01:48.852Z,99.90
2018-09-27T02:04:17.578Z,99.90
2018-09-27T02:06:46.063Z,99.90
2018-09-27T02:09:14.573Z,99.90
2018-09-27T02:11:43.173Z,99.90
2018-09-27T02:14:11.668Z,99.90
2018-09-27T02:16:40.316Z,99.90
2018-09-27T02:19:09.023Z,99.90
2018-09-27T02:21:37.655Z,99.90
2018-09-27T02:24:06.249Z,99.90
2018-09-27T02:26:34.875Z,99.90
2018-09-27T02:29:03.584Z,99.90
2018-09-27T02:31:32.146Z,99.90
2018-09-27T02:34:00.891Z,99.90
2018-09-27T02:36:29.465Z,99.90
2018-09-27T02:38:58.002Z,99.90
2018-09-27T02:41:26.604Z,99.90
2018-09-27T02:43:55.221Z,99.90
2018-09-27T02:46:23.838Z,99.90
2018-09-27T02:48:52.344Z,99.90
2018-09-27T02:51:20.918Z,99.90
2018-09-27T02:53:49.422Z,99.90
2018-09-27T02:56:18.135Z,99.90
2018-09-27T02:58:46.678Z,99.90
2018-09-27T03:01:15.337Z,99.90
2018-09-27T03:03:43.921Z,99.90
2018-09-27T03:06:12.589Z,99.90
2018-09-27T03:08:41.196Z,99.90
2018-09-27T03:11:09.624Z,99.90
2018-09-27T03:13:38.255Z,99.90
2018-09-27T03:16:06.849Z,99.90
2018-09-27T03:18:35.523Z,99.90
2018-09-27T03:21:04.148Z,99.90
2018-09-27T03:23:32.774Z,99.90
2018-09-27T03:26:01.377Z,99.90
2018-09-27T03:28:30.034Z,99.90
2018-09-27T03:30:58.763Z,99.90
2018-09-27T03:33:27.396Z,99.90
2018-09-27T03:35:56.030Z,99.90
2018-09-27T03:38:24.665Z,99.90
2018-09-27T03:40:53.341Z,99.90
2018-09-27T03:43:21.954Z,99.90
2018-09-27T03:45:50.510Z,99.90
2018-09-27T03:48:19.056Z,99.90
2018-09-27T03:50:47.853Z,99.90
2018-09-27T03:53:16.549Z,99.90
2018-09-27T03:55:45.173Z,99.90
2018-09-27T03:58:13.812Z,99.90
2018-09-27T04:00:42.384Z,99.90
2018-09-27T04:03:11.077Z,99.90
2018-09-27T04:05:39.792Z,99.90
2018-09-27T04:08:08.291Z,99.90
2018-09-27T04:10:37.003Z,99.90
2018-09-27T04:13:05.526Z,99.90
2018-09-27T04:15:34.253Z,99.90
2018-09-27T04:18:02.788Z,99.90
2018-09-27T04:20:35.183Z,99.90
2018-09-27T04:23:03.878Z,99.90
2018-09-27T04:25:32.489Z,99.90
2018-09-27T04:28:01.140Z,99.90
2018-09-27T04:30:29.727Z,99.90
2018-09-27T04:32:58.294Z,99.90
2018-09-27T04:35:26.881Z,99.90
2018-09-27T04:37:55.384Z,99.90
2018-09-27T04:40:23.952Z,99.90
2018-09-27T04:42:52.545Z,99.90
2018-09-27T04:45:21.194Z,99.90
2018-09-27T04:47:49.771Z,99.90
2018-09-27T04:50:18.385Z,99.90
2018-09-27T04:52:46.837Z,99.90
2018-09-27T04:55:15.457Z,99.90
2018-09-27T04:57:44.106Z,99.90
2018-09-27T05:00:12.710Z,99.90
2018-09-27T05:02:41.503Z,99.90
2018-09-27T05:05:10.086Z,99.90
2018-09-27T05:07:38.560Z,99.90
2018-09-27T05:10:07.772Z,99.90
2018-09-27T05:12:36.628Z,99.90
2018-09-27T05:15:05.662Z,99.90
2018-09-27T05:17:34.474Z,99.90
2018-09-27T05:20:03.625Z,99.90
2018-09-27T05:22:32.289Z,99.90
2018-09-27T05:25:00.861Z,99.90
2018-09-27T05:27:29.486Z,99.90
2018-09-27T05:29:58.087Z,99.90
2018-09-27T05:32:26.733Z,99.90
2018-09-27T05:34:55.473Z,99.90
2018-09-27T05:37:24.217Z,99.90
2018-09-27T05:39:52.853Z,99.90
2018-09-27T05:42:21.682Z,99.90
2018-09-27T05:44:50.136Z,99.90
2018-09-27T05:47:18.799Z,99.90
2018-09-27T05:49:47.509Z,99.90
2018-09-27T05:52:16.081Z,99.90
2018-09-27T05:54:44.736Z,99.90
2018-09-27T05:57:13.961Z,99.90
2018-09-27T05:59:42.586Z,99.90
2018-09-27T06:02:11.611Z,99.90
2018-09-27T06:04:40.234Z,99.90
2018-09-27T06:07:08.758Z,99.90
2018-09-27T06:09:37.258Z,99.90
2018-09-27T06:12:06.128Z,99.90
2018-09-27T06:14:35.017Z,99.90
2018-09-27T06:17:03.813Z,99.90
2018-09-27T06:19:32.480Z,99.90
2018-09-27T06:22:01.123Z,99.90
2018-09-27T06:24:30.016Z,99.90
2018-09-27T06:26:58.737Z,99.90
2018-09-27T06:29:27.536Z,99.90
2018-09-27T06:31:56.444Z,99.90
2018-09-27T06:34:25.451Z,99.90
2018-09-27T06:36:53.960Z,99.90
2018-09-27T06:39:22.615Z,99.90
2018-09-27T06:41:51.352Z,99.90
2018-09-27T06:44:20.294Z,99.90
2018-09-27T06:46:49.016Z,99.90
2018-09-27T06:49:17.905Z,99.90
2018-09-27T06:51:46.450Z,99.90
2018-09-27T06:54:14.904Z,99.90
2018-09-27T06:56:43.898Z,99.90
2018-09-27T06:59:12.595Z,99.90
2018-09-27T07:01:41.344Z,99.90
2018-09-27T07:04:10.100Z,99.90
2018-09-27T07:06:39.380Z,99.90
2018-09-27T07:09:11.035Z,99.90
2018-09-27T07:11:40.227Z,99.90
2018-09-27T07:16:50.085Z,99.90
2018-09-27T07:19:18.834Z,99.90
2018-09-27T07:21:47.763Z,99.90
2018-09-27T07:24:16.304Z,99.90
2018-09-27T07:26:45.220Z,99.90
2018-09-27T07:29:14.139Z,99.90
2018-09-27T07:31:43.180Z,99.90
2018-09-27T07:34:11.960Z,99.90
2018-09-27T07:36:40.618Z,99.90
2018-09-27T07:39:10.857Z,99.90
2018-09-27T07:41:39.725Z,99.90
2018-09-27T07:44:08.599Z,99.90
2018-09-27T07:46:37.592Z,99.90
2018-09-27T07:49:06.448Z,99.90
2018-09-27T07:51:35.371Z,99.90
2018-09-27T07:54:04.077Z,99.90
2018-09-27T07:56:32.831Z,99.90
2018-09-27T07:59:02.008Z,99.90
2018-09-27T08:01:32.589Z,99.90
2018-09-27T08:04:01.944Z,99.90
2018-09-27T08:06:31.032Z,99.90
2018-09-27T08:09:00.186Z,99.90
2018-09-27T08:11:28.706Z,99.90
2018-09-27T08:13:57.276Z,99.90
2018-09-27T08:16:26.283Z,99.90
2018-09-27T08:18:55.084Z,99.90
2018-09-27T08:21:24.159Z,99.90
2018-09-27T08:23:52.893Z,99.90
2018-09-27T08:26:21.937Z,99.90
2018-09-27T08:28:50.886Z,99.90
2018-09-27T08:31:19.648Z,99.90
2018-09-27T08:33:48.612Z,99.90
2018-09-27T08:36:17.536Z,99.90
2018-09-27T08:38:46.431Z,99.90
2018-09-27T08:41:15.251Z,99.90
2018-09-27T08:43:44.016Z,99.90
2018-09-27T08:46:12.621Z,99.90
2018-09-27T08:48:41.255Z,99.90
2018-09-27T08:51:09.914Z,99.90
2018-09-27T08:53:39.039Z,99.90
2018-09-27T08:56:07.952Z,99.00
2018-09-27T08:58:36.500Z,97.50
2018-09-27T09:01:05.221Z,97.20
2018-09-27T09:03:34.024Z,98.00
2018-09-27T09:06:02.536Z,98.10
2018-09-27T09:08:31.147Z,97.40
2018-09-27T09:10:59.924Z,96.30
2018-09-27T09:13:28.566Z,96.10
2018-09-27T09:15:57.236Z,95.90
2018-09-27T09:18:25.785Z,95.30
2018-09-27T09:20:54.561Z,95.90
2018-09-27T09:23:23.181Z,95.40
2018-09-27T09:25:58.668Z,94.70
2018-09-27T09:28:27.367Z,94.60
2018-09-27T09:30:56.241Z,96.30
2018-09-27T09:33:25.163Z,94.80
2018-09-27T09:35:54.524Z,94.60
2018-09-27T09:38:23.057Z,95.40
2018-09-27T09:40:51.880Z,95.40
2018-09-27T09:43:20.413Z,96.80
2018-09-27T09:45:49.047Z,97.00
2018-09-27T09:48:17.710Z,97.50
2018-09-27T09:50:46.256Z,98.10
2018-09-27T09:53:15.009Z,98.30
2018-09-27T09:55:43.557Z,99.10
2018-09-27T09:58:12.143Z,98.80
2018-09-27T10:00:40.818Z,98.80
2018-09-27T10:03:09.672Z,98.80
2018-09-27T10:05:38.866Z,99.40
2018-09-27T10:08:07.482Z,99.90
2018-09-27T10:10:35.901Z,99.10
2018-09-27T10:13:04.488Z,99.90
2018-09-27T10:15:33.766Z,99.80
2018-09-27T10:18:02.277Z,99.90
2018-09-27T10:20:30.825Z,99.90
2018-09-27T10:22:59.289Z,99.90
2018-09-27T10:25:27.839Z,99.90
2018-09-27T10:27:56.468Z,99.90
2018-09-27T10:30:25.224Z,99.90
2018-09-27T10:32:53.756Z,99.90
2018-09-27T10:35:23.153Z,99.90
2018-09-27T10:37:51.658Z,99.90
2018-09-27T10:40:20.060Z,99.90
2018-09-27T10:42:48.688Z,98.80
2018-09-27T10:45:17.333Z,99.10
2018-09-27T10:47:45.943Z,99.90
2018-09-27T10:50:14.594Z,99.20
2018-09-27T10:52:43.036Z,99.90
2018-09-27T10:55:11.466Z,99.80
2018-09-27T10:57:39.928Z,99.50
2018-09-27T11:00:08.501Z,99.60
2018-09-27T11:02:37.107Z,99.80
2018-09-27T11:05:05.935Z,96.80
2018-09-27T11:07:34.611Z,97.90
2018-09-27T11:10:03.246Z,97.40
2018-09-27T11:12:31.961Z,97.40
2018-09-27T11:15:00.937Z,97.60
2018-09-27T11:17:29.696Z,97.50
2018-09-27T11:19:58.488Z,96.80
2018-09-27T11:22:27.564Z,97.30
2018-09-27T11:24:56.362Z,96.00
2018-09-27T11:27:25.141Z,95.50
2018-09-27T11:29:59.188Z,95.00
2018-09-27T11:32:31.203Z,95.10
2018-09-27T11:35:00.279Z,95.70
2018-09-27T11:37:29.396Z,96.10
2018-09-27T11:39:58.369Z,97.20
2018-09-27T11:42:27.196Z,97.70
2018-09-27T11:44:55.840Z,97.50
2018-09-27T11:47:24.616Z,97.50
2018-09-27T11:49:53.379Z,97.00
2018-09-27T11:52:21.864Z,96.70
2018-09-27T11:54:50.634Z,95.70
2018-09-27T11:57:19.158Z,96.70
2018-09-27T11:59:47.606Z,95.90
2018-09-27T12:02:16.448Z,97.00
2018-09-27T12:04:45.019Z,96.90
2018-09-27T12:07:13.712Z,96.30
2018-09-27T12:09:42.315Z,95.70
2018-09-27T12:12:10.889Z,95.70
2018-09-27T12:14:40.168Z,95.70
2018-09-27T12:17:08.804Z,96.00
2018-09-27T12:19:37.904Z,95.90
2018-09-27T12:22:06.670Z,95.60
2018-09-27T12:24:35.146Z,96.40
2018-09-27T12:27:03.563Z,96.20
2018-09-27T12:29:32.004Z,95.90
2018-09-27T12:32:00.692Z,95.10
2018-09-27T12:34:29.136Z,94.90
2018-09-27T12:36:57.610Z,95.30
2018-09-27T12:39:28.905Z,95.30
2018-09-27T12:41:57.657Z,95.00
2018-09-27T12:44:26.749Z,94.70
2018-09-27T12:46:55.333Z,94.70
2018-09-27T12:49:23.844Z,95.20
2018-09-27T12:51:52.479Z,96.20
2018-09-27T12:54:21.355Z,96.90
2018-09-27T12:56:49.817Z,95.80
2018-09-27T12:59:18.512Z,96.20
2018-09-27T13:01:47.010Z,95.90
2018-09-27T13:04:15.713Z,97.10
2018-09-27T13:06:44.539Z,95.80
2018-09-27T13:09:13.157Z,96.00
2018-09-27T13:11:41.693Z,95.70
2018-09-27T13:14:10.095Z,97.20
2018-09-27T13:16:38.552Z,96.00
2018-09-27T13:19:07.045Z,96.30
2018-09-27T13:21:35.806Z,95.50
2018-09-27T13:24:04.277Z,94.80
2018-09-27T13:26:32.895Z,95.50
2018-09-27T13:29:01.478Z,95.20
2018-09-27T13:31:29.885Z,95.70
2018-09-27T13:33:58.711Z,94.90
2018-09-27T13:36:27.598Z,95.40
2018-09-27T13:38:56.092Z,95.40
2018-09-27T13:41:24.688Z,95.00
2018-09-27T13:43:53.142Z,95.90
2018-09-27T13:46:22.296Z,93.80
2018-09-27T13:48:50.917Z,94.00
2018-09-27T13:51:19.407Z,94.20
2018-09-27T13:53:48.022Z,94.10
2018-09-27T13:56:16.677Z,94.80
2018-09-27T13:58:45.171Z,92.20
2018-09-27T14:01:13.710Z,91.80
2018-09-27T14:03:42.561Z,91.30
2018-09-27T14:06:11.280Z,91.00
2018-09-27T14:08:40.070Z,91.60
2018-09-27T14:11:08.805Z,91.20
2018-09-27T14:13:37.245Z,91.20
2018-09-27T14:16:05.824Z,91.40
2018-09-27T14:18:34.600Z,91.90
2018-09-27T14:21:03.193Z,91.70
2018-09-27T14:23:32.088Z,92.70
2018-09-27T14:26:00.600Z,92.70
2018-09-27T14:28:29.356Z,92.70
2018-09-27T14:30:57.954Z,92.70
2018-09-27T14:33:26.442Z,92.80
2018-09-27T14:35:55.296Z,93.20
2018-09-27T14:38:23.952Z,93.30
2018-09-27T14:40:52.374Z,93.10
2018-09-27T14:43:21.368Z,92.90
2018-09-27T14:45:50.282Z,93.10
2018-09-27T14:48:18.895Z,93.30
2018-09-27T14:50:47.331Z,93.70
2018-09-27T14:53:15.891Z,93.90
2018-09-27T14:55:44.328Z,94.60
2018-09-27T14:58:12.928Z,93.70
2018-09-27T15:00:41.493Z,93.80
2018-09-27T15:03:10.012Z,93.70
2018-09-27T15:05:38.625Z,94.20
2018-09-27T15:08:07.049Z,93.80
2018-09-27T15:10:35.864Z,93.80
2018-09-27T15:13:04.348Z,94.50
2018-09-27T15:15:32.830Z,94.70
2018-09-27T15:18:01.475Z,95.00
2018-09-27T15:20:29.852Z,94.50
2018-09-27T15:22:58.313Z,94.70
2018-09-27T15:25:26.753Z,94.80
2018-09-27T15:27:55.355Z,95.00
2018-09-27T15:30:23.787Z,94.80
2018-09-27T15:32:52.308Z,95.20
2018-09-27T15:35:20.897Z,95.20
2018-09-27T15:37:49.613Z,95.60
2018-09-27T15:40:18.171Z,95.80
2018-09-27T15:42:46.708Z,96.00
2018-09-27T15:45:15.155Z,95.50
2018-09-27T15:47:43.680Z,96.60
2018-09-27T15:50:12.189Z,96.50
2018-09-27T15:52:40.753Z,96.20
2018-09-27T15:55:09.323Z,96.30
2018-09-27T15:57:37.777Z,96.90
2018-09-27T16:00:06.747Z,96.60
2018-09-27T16:02:35.228Z,97.60
2018-09-27T16:05:03.725Z,96.50
2018-09-27T16:07:32.233Z,96.80
2018-09-27T16:10:00.774Z,97.00
2018-09-27T16:12:29.468Z,97.80
2018-09-27T16:14:58.077Z,97.20
2018-09-27T16:17:26.750Z,96.70
2018-09-27T16:19:55.197Z,98.70
2018-09-27T16:22:23.761Z,98.10
2018-09-27T16:24:52.468Z,97.80
2018-09-27T16:27:20.964Z,98.70
2018-09-27T16:29:49.553Z,99.50
2018-09-27T16:32:18.085Z,99.90
2018-09-27T16:34:46.584Z,99.90
2018-09-27T16:37:15.299Z,99.90
2018-09-27T16:39:43.804Z,99.90
2018-09-27T16:42:12.262Z,99.90
2018-09-27T16:44:40.696Z,99.90
2018-09-27T16:47:09.165Z,99.90
2018-09-27T16:49:37.756Z,99.90
2018-09-27T16:52:06.306Z,99.90
2018-09-27T16:54:34.971Z,99.90
2018-09-27T16:57:03.613Z,99.90
2018-09-27T16:59:32.105Z,99.90
2018-09-27T17:02:00.585Z,99.90
2018-09-27T17:04:29.075Z,99.90
2018-09-27T17:06:57.710Z,99.90
2018-09-27T17:09:26.268Z,99.90
2018-09-27T17:11:54.743Z,99.90
2018-09-27T17:14:23.297Z,99.90
2018-09-27T17:16:51.848Z,99.90
2018-09-27T17:19:20.373Z,99.90
2018-09-27T17:21:48.849Z,99.90
2018-09-27T17:24:17.447Z,99.90
2018-09-27T17:26:46.061Z,99.90
2018-09-27T17:29:14.689Z,99.90
2018-09-27T17:31:43.520Z,99.90
2018-09-27T17:34:12.280Z,99.90
2018-09-27T17:36:41.553Z,99.90
2018-09-27T17:39:10.335Z,99.90
2018-09-27T17:41:38.829Z,99.90
2018-09-27T17:44:07.957Z,99.90
2018-09-27T17:46:36.547Z,99.90
2018-09-27T17:49:04.972Z,99.90
2018-09-27T17:51:33.464Z,99.90
2018-09-27T17:54:01.947Z,99.90
2018-09-27T17:56:30.856Z,99.90
2018-09-27T17:58:59.809Z,99.90
2018-09-27T18:01:28.438Z,99.90
2018-09-27T18:03:57.022Z,99.90
2018-09-27T18:06:25.593Z,99.90
2018-09-27T18:08:54.392Z,99.90
2018-09-27T18:11:23.090Z,99.90
2018-09-27T18:13:51.554Z,99.90
2018-09-27T18:16:21.042Z,99.90
2018-09-27T18:18:49.598Z,99.90
2018-09-27T18:21:18.313Z,99.90
2018-09-27T18:23:46.809Z,99.90
2018-09-27T18:26:15.460Z,99.90
2018-09-27T18:28:44.057Z,99.90
2018-09-27T18:31:12.737Z,99.90
2018-09-27T18:33:41.229Z,99.90
2018-09-27T18:36:09.832Z,99.90
2018-09-27T18:38:38.385Z,99.90
2018-09-27T18:41:06.939Z,99.90
2018-09-27T18:43:35.543Z,99.90
2018-09-27T18:46:04.164Z,99.90
2018-09-27T18:48:32.682Z,99.90
2018-09-27T18:51:01.204Z,99.90
2018-09-27T18:53:29.813Z,99.90
2018-09-27T18:55:58.329Z,99.90
2018-09-27T18:58:26.892Z,99.90
2018-09-27T19:00:55.322Z,99.90
2018-09-27T19:03:23.856Z,99.90
2018-09-27T19:05:52.421Z,99.90
2018-09-27T19:08:21.069Z,99.90
2018-09-27T19:10:49.662Z,99.90
2018-09-27T19:13:18.247Z,99.90
2018-09-27T19:15:46.820Z,99.90
2018-09-27T19:18:15.395Z,99.90
2018-09-27T19:20:44.004Z,99.90
2018-09-27T19:23:12.512Z,99.90
2018-09-27T19:25:41.116Z,99.90
2018-09-27T19:28:09.624Z,99.90
2018-09-27T19:30:38.205Z,99.90
2018-09-27T19:33:06.711Z,99.90
2018-09-27T19:35:35.286Z,99.90
2018-09-27T19:38:04.053Z,99.90
2018-09-27T19:40:32.548Z,99.90
2018-09-27T19:43:01.104Z,99.90
2018-09-27T19:45:29.774Z,99.90
2018-09-27T19:47:58.330Z,99.90
2018-09-27T19:50:26.911Z,99.90
2018-09-27T19:52:55.547Z,99.90
2018-09-27T19:55:24.121Z,99.90
2018-09-27T19:57:52.731Z,99.90
2018-09-27T20:00:21.425Z,99.90
2018-09-27T20:02:50.133Z,99.90
2018-09-27T20:05:18.765Z,99.90
2018-09-27T20:07:47.289Z,99.90
2018-09-27T20:10:15.987Z,99.90
2018-09-27T20:12:44.768Z,99.90
2018-09-27T20:15:13.304Z,99.90
2018-09-27T20:17:41.881Z,99.90
2018-09-27T20:20:10.635Z,99.90
2018-09-27T20:22:39.217Z,99.90
2018-09-27T20:25:07.960Z,99.90
2018-09-27T20:27:36.621Z,99.90
2018-09-27T20:30:05.857Z,99.90
2018-09-27T20:32:34.553Z,99.90
2018-09-27T20:35:03.238Z,99.90
2018-09-27T20:37:31.802Z,99.90
2018-09-27T20:40:00.436Z,99.90
2018-09-27T20:42:29.157Z,99.90
2018-09-27T20:44:57.849Z,99.90
2018-09-27T20:47:26.563Z,99.90
2018-09-27T20:49:55.399Z,99.90
2018-09-27T20:52:24.237Z,99.90
2018-09-27T20:54:52.897Z,99.90
2018-09-27T20:57:21.602Z,99.90
2018-09-27T20:59:50.262Z,99.90
2018-09-27T21:02:19.037Z,99.90
2018-09-27T21:04:47.733Z,99.90
2018-09-27T21:07:16.429Z,99.90
2018-09-27T21:09:45.140Z,99.90
2018-09-27T21:12:13.719Z,99.90
2018-09-27T21:14:42.400Z,99.90
2018-09-27T21:17:11.050Z,99.90
2018-09-27T21:19:39.746Z,99.90
2018-09-27T21:22:08.441Z,99.90
2018-09-27T21:24:37.107Z,99.90
2018-09-27T21:27:05.792Z,99.90
2018-09-27T21:29:34.466Z,99.90
2018-09-27T21:32:03.216Z,99.90
2018-09-27T21:34:31.918Z,99.90
2018-09-27T21:37:00.573Z,99.90
2018-09-27T21:39:29.269Z,99.90
2018-09-27T21:41:57.795Z,99.90
2018-09-27T21:44:26.529Z,99.90
2018-09-27T21:46:55.377Z,99.90
2018-09-27T21:49:24.152Z,99.90
2018-09-27T21:51:52.829Z,99.90
2018-09-27T21:54:21.684Z,99.90
2018-09-27T21:56:50.422Z,99.90
2018-09-27T21:59:19.150Z,99.90
2018-09-27T22:01:47.730Z,99.90
2018-09-27T22:04:16.512Z,99.90
2018-09-27T22:06:46.561Z,99.90
2018-09-27T22:09:15.261Z,99.90
2018-09-27T22:11:43.929Z,99.90
2018-09-27T22:14:12.505Z,99.90
2018-09-27T22:16:40.988Z,99.90
2018-09-27T22:19:09.736Z,99.90
2018-09-27T22:21:38.539Z,99.90
2018-09-27T22:24:07.205Z,99.90
2018-09-27T22:26:35.983Z,99.90
2018-09-27T22:29:04.705Z,99.90
2018-09-27T22:31:33.538Z,99.90
2018-09-27T22:34:02.308Z,99.90
2018-09-27T22:36:33.769Z,99.90
2018-09-27T22:39:02.412Z,99.90
2018-09-27T22:41:31.134Z,99.90
2018-09-27T22:43:59.744Z,99.90
2018-09-27T22:46:28.365Z,99.90
2018-09-27T22:48:57.101Z,99.90
2018-09-27T22:51:25.996Z,99.90
2018-09-27T22:53:54.651Z,99.90
2018-09-27T22:56:23.266Z,99.90
2018-09-27T22:58:51.904Z,99.90
2018-09-27T23:01:20.598Z,99.90
2018-09-27T23:03:49.234Z,99.90
2018-09-27T23:06:17.857Z,99.90
2018-09-27T23:08:46.569Z,99.90
2018-09-27T23:11:15.281Z,99.90
2018-09-27T23:13:44.174Z,99.90
2018-09-27T23:16:12.871Z,99.90
2018-09-27T23:18:41.566Z,99.90
2018-09-27T23:21:10.281Z,99.90
2018-09-27T23:23:39.098Z,99.90
2018-09-27T23:26:07.912Z,99.90
2018-09-27T23:28:36.547Z,99.90
2018-09-27T23:31:05.201Z,99.90
2018-09-27T23:33:33.878Z,99.90
2018-09-27T23:36:02.552Z,99.90
2018-09-27T23:38:31.198Z,99.90
2018-09-27T23:40:59.763Z,99.90
2018-09-27T23:43:28.337Z,99.90
2018-09-27T23:45:57.034Z,99.90
2018-09-27T23:48:25.888Z,99.90
2018-09-27T23:50:54.545Z,99.90
2018-09-27T23:53:23.300Z,99.90
2018-09-27T23:55:52.149Z,99.90
2018-09-27T23:58:20.810Z,99.90
